Relevés horaires Beauvechain (Belgique)


Relevés horaires à Beauvechain - Mercredi 17 Août 2016
Heure UTC1 Température [°C] Vent [km/h] Hum. [%] Pres.4 [hPa] Visi. [Km] Nébu. [octa] Préc.5 [mm] Cond.
2m. Res. Ros. Dir.2 Vit. Moy. Raf.3
23:00 15.6 15.6 9.7 ENE 3.7 3.7 5.6 68 1011.2(-0.4/3h) 20 -- -- --
22:00 16.4 16.4 10.4 ENE 3.7 3.7 5.6 68 1011.3(0.2/3h) 20 -- -- --
21:00 17.3 17.3 11.2 NE 3.7 0.0 0.0 67 1011.6(0.5/3h) 20 -- -- --
20:00 18.6 18.6 11.9 ENE 3.7 5.6 5.6 65 1011.5(0.3/3h) 20 -- -- --
19:00 20.3 20.3 11.9 NE 3.7 5.6 5.6 58 1011(-0.1/3h) 20 -- -- --
18:00 23.2 23.2 11.9 NE 5.6 0.0 0.0 49 1010.7(-0.6/3h) 20 -- 0/0h
--
17:00 24.7 24.7 11.3 NNE 7.4 7.4 9.3 43 1010.7(-0.7/3h) 19 -- -- --
16:00 25.4 25.4 11.0 NE 5.6 7.4 9.3 40 1010.8(-1.0/3h) 20 -- -- --
15:00 25.2 25.2 10.5 NNE 3.7 0.0 0.0 40 1011.2(-1.0/3h) 20 -- -- --
14:00 25.0 25.0 11.8 ENE 3.7 7.4 7.4 44 1011.6(-1.2/3h) 20 1/8 -- --
13:00 24.5 24.5 12.5 E 7.4 7.4 11.1 47 1012(-1.0/3h) 20 1/8 -- --
12:00 23.3 23.3 13.8 E 5.6 5.6 9.3 55 1012.3(-0.6/3h) 20 1/8 0/0h
--
11:00 22.4 22.4 12.3 ENE 5.6 5.6 11.1 53 1012.8(-0.4/3h) 20 1/8 -- --
10:00 20.7 20.7 12.7 ENE 5.6 5.6 9.3 60 1013.2(-0.2/3h) 15 1/8 -- --
09:00 18.9 18.9 12.9 ENE 5.6 -- 9.3 68 1013.3(-0.3/3h) 15 1/8 -- --
08:00 16.8 16.8 12.5 ENE 5.6 5.6 7.4 76 1013.5(-0.4/3h) 15 1/8 -- --
07:00 14.6 14.5 11.9 ENE 7.4 7.4 9.3 84 1013.7(-0.5/3h) 10 1/8 -- --
06:00 12.8 12.8 11.0 NE 3.7 3.7 3.7 89 1014.1(-0.6/3h) 8 1/8 0/0h
--
05:00 11.6 11.6 10.1 NNO 1.9 3.7 3.7 90 1014.3(-0.8/3h) 7 1/8 -- --
04:00 11.2 11.2 9.8 ENE 3.7 3.7 5.6 91 1014.5(-1.1/3h) 6 -- -- --
03:00 11.6 11.6 10.6 ENE 3.7 3.7 5.6 94 1014.7(-1.1/3h) 9 -- -- --
02:00 11.6 11.6 10.5 ENE 3.7 3.7 5.6 93 1015.2(-1.0/3h) 11 -- -- --
01:00 12.3 12.3 10.8 ENE 3.7 3.7 5.6 91 1015.6(-0.7/3h) 14 -- -- --
00:00 12.8 12.8 11.0 ENE 3.7 5.6 5.6 89 1015.8(-0.3/3h) 19 -- 0/0h
--

1 Coordinated Universal Time. Actuellement il est 20:00 locale et 19:00 UTC.

2 Le vent souffle depuis la direction indiquée vers la direction oposée.

3 Les rafales max. sont disponible 40 min après l'heure du relevé.

4 Pour les stations d'altitude (plus de 600m) le géopotentiel du niveau le plus proche de la pression obligatoire est indiqué.

5 Les stations disposant d'un diffuseur peuvent indiquer "trace". Cela signifie que des précipitations ont touchés le sol mais que la quantité est inférieure à 0.1 mm.

Récapitulatif de la journée
Température [°C] Vent [km/h] Ensoleillement4 [h] Precipitations totale5 [mm] Pression [Hpa]
Min1 Max.2 Moy.3 Max. Min Max.
11.1 25.9 4.6 11.1 0 h 0 min 0 1010.7 1015.8

1 Température minimale relevée entre 18:00 UTC la veille et 18:00 UTC le jour donné.

2 Température maximale relevée entre 06:00 UTC le jour donné et 06:00 UTC le lendemain.

3 Vent moyen de la journée basé sur les relevés horaires.

4 Ensoleillement en heures relevé entre 06:00 UTC la veille et 06:00 UTC le jour donné.

5 Précipitations totales tombées entre 06:00 UTC la jour donné et 06:00 UTC le lendemain.

Graphiques horaires